Portada
METAR-TAF:

METAR-TAF

Aeroports :

Lakeland, Florida, Estats Units d'Amèrica

latitud: 27-59N, longitud: 082-01W, altitud: 43 m

Observació

L'informe es va fer fa 58 minuts, a les 16:50 UTC
Vent 8 kt del Oest/Nord-Oest amb ràfegues de 15 kt
Temperatura 13°C
Humitat 51%
Pressió 1023 hPa
Visibilitat: 16.1 km
Escasses núvols a una alçada de 2500 ft

METAR: KLAL 271650Z 29008G15KT 10SM FEW025 13/03 A3021

Hora: 12:48 (17:48 UTC)

Pronòstic

L'informe es va fer fa 16 minuts, a les 17:32 UTC
Pronòstic vàlid del 27 a les 18 UTC al 28 a les 18 UTC
Vent 11 kt del Oest/Nord-Oest
Visibilitat: 10 km
Escasses núvols a una alçada de 2500 ft
A partir de les 28 a les 0100 UTC
Vent 3 kt amb direcció variable
Visibilitat: 10 km
Cel clar
A partir de les 28 a les 1500 UTC
Vent 8 kt del Nord/Nord-Oest
Visibilitat: 10 km
Escasses núvols a una alçada de 4000 ft

TAF: KLAL 271732Z 2718/2818 30011KT P6SM FEW025 FM280100 VRB03KT P6SM SKC FM281500 34008KT P6SM FEW040

Observacions i pronòstics meteorològics de més de 4000 aeroports (METAR i TAF).

Les estacions disponibles són els punts grocs i vermells al mapa.

Posi el ratolí al punt desitjat per veure el nom de l'estació.

Feu clic per veure les observacions i els pronòstics meteorològics.

Per canviar el mapa: feu clic els botons verds amb una creu de color negre per apropar; al botó verd amb un guió per allunyar la imatge; o en les fletxes verdes per a mapes adjacents.


METAR-TAF: